TimeMDT,TemperatureF,Dew PointF,Humidity,Sea Level PressureIn,VisibilityMPH,Wind Direction,Wind SpeedMPH,Gust SpeedMPH,PrecipitationIn,Events,Conditions,WindDirDegrees,DateUTC
12:15 AM,39.2,33.8,81,30.07,10.0,WSW,3.5,-,N/A,,Mostly Cloudy,240,2013-10-02 06:15:00
12:35 AM,39.2,33.8,81,30.07,10.0,SE,4.6,-,N/A,,Mostly Cloudy,140,2013-10-02 06:35:00
12:55 AM,37.4,32.0,81,30.08,10.0,Calm,Calm,-,N/A,,Scattered Clouds,0,2013-10-02 06:55:00
1:15 AM,37.4,33.8,87,30.09,10.0,Calm,Calm,-,N/A,,Overcast,0,2013-10-02 07:15:00
1:35 AM,39.2,33.8,81,30.10,10.0,NE,8.1,-,N/A,,Mostly Cloudy,40,2013-10-02 07:35:00
1:55 AM,42.8,33.8,70,30.11,10.0,NNE,12.7,-,N/A,,Overcast,30,2013-10-02 07:55:00
2:15 AM,41.0,33.8,76,30.11,10.0,WNW,5.8,-,N/A,,Mostly Cloudy,290,2013-10-02 08:15:00
2:35 AM,39.2,33.8,81,30.11,10.0,West,4.6,-,N/A,,Overcast,270,2013-10-02 08:35:00
2:55 AM,37.4,33.8,87,30.11,10.0,SW,3.5,-,N/A,,Scattered Clouds,220,2013-10-02 08:55:00
3:15 AM,37.4,33.8,87,30.12,10.0,South,3.5,-,N/A,,Clear,190,2013-10-02 09:15:00
3:35 AM,37.4,33.8,87,30.12,10.0,South,3.5,-,N/A,,Partly Cloudy,170,2013-10-02 09:35:00
3:55 AM,35.6,32.0,87,30.12,10.0,NNE,3.5,-,N/A,,Mostly Cloudy,20,2013-10-02 09:55:00
4:15 AM,37.4,30.2,75,30.13,10.0,Calm,Calm,-,N/A,,Mostly Cloudy,0,2013-10-02 10:15:00
4:35 AM,37.4,33.8,87,30.13,10.0,ENE,4.6,-,N/A,,Scattered Clouds,70,2013-10-02 10:35:00
5:15 AM,35.6,32.0,87,30.13,10.0,Calm,Calm,-,N/A,,Partly Cloudy,0,2013-10-02 11:15:00
5:35 AM,35.6,32.0,87,30.14,10.0,Calm,Calm,-,N/A,,Partly Cloudy,0,2013-10-02 11:35:00
5:55 AM,33.8,30.2,87,30.14,10.0,Calm,Calm,-,N/A,,Partly Cloudy,0,2013-10-02 11:55:00
6:15 AM,33.8,28.4,81,30.14,10.0,Calm,Calm,-,N/A,,Scattered Clouds,0,2013-10-02 12:15:00
6:35 AM,33.8,30.2,87,30.14,10.0,Calm,Calm,-,N/A,,Partly Cloudy,0,2013-10-02 12:35:00
6:55 AM,33.8,30.2,87,30.14,10.0,NNE,3.5,-,N/A,,Clear,20,2013-10-02 12:55:00
7:15 AM,33.8,30.2,87,30.14,10.0,Calm,Calm,-,N/A,,Mostly Cloudy,0,2013-10-02 13:15:00
7:35 AM,33.8,30.2,87,30.14,10.0,Calm,Calm,-,N/A,,Overcast,0,2013-10-02 13:35:00
7:55 AM,33.8,32.0,93,30.14,10.0,Calm,Calm,-,N/A,,Overcast,0,2013-10-02 13:55:00
8:15 AM,35.6,32.0,87,30.14,10.0,Calm,Calm,-,N/A,,Scattered Clouds,0,2013-10-02 14:15:00
8:35 AM,35.6,32.0,87,30.14,10.0,Calm,Calm,-,N/A,,Clear,0,2013-10-02 14:35:00
8:55 AM,33.8,32.0,93,30.14,10.0,Calm,Calm,-,N/A,,Clear,0,2013-10-02 14:55:00
9:15 AM,35.6,33.8,93,30.15,10.0,Calm,Calm,-,N/A,,Clear,0,2013-10-02 15:15:00
9:35 AM,37.4,32.0,81,30.15,10.0,NNW,3.5,-,N/A,,Clear,340,2013-10-02 15:35:00
10:15 AM,39.2,30.2,70,30.13,10.0,Calm,Calm,-,N/A,,Clear,0,2013-10-02 16:15:00
10:35 AM,39.2,30.2,70,30.12,10.0,North,5.8,-,N/A,,Clear,360,2013-10-02 16:35:00
10:55 AM,41.0,30.2,65,30.11,10.0,NNE,3.5,-,N/A,,Clear,30,2013-10-02 16:55:00
11:15 AM,42.8,30.2,61,30.10,10.0,Calm,Calm,-,N/A,,Clear,0,2013-10-02 17:15:00
11:35 AM,42.8,32.0,66,30.09,10.0,Calm,Calm,-,N/A,,Clear,0,2013-10-02 17:35:00
11:55 AM,44.6,30.2,57,30.09,10.0,NE,3.5,-,N/A,,Clear,40,2013-10-02 17:55:00
12:15 PM,44.6,32.0,61,30.07,10.0,Calm,Calm,-,N/A,,Clear,0,2013-10-02 18:15:00
12:35 PM,44.6,28.4,53,30.06,10.0,Calm,Calm,-,N/A,,Clear,0,2013-10-02 18:35:00
12:55 PM,46.4,28.4,50,30.05,10.0,Calm,Calm,-,N/A,,Clear,0,2013-10-02 18:55:00
1:15 PM,46.4,28.4,50,30.04,10.0,Calm,Calm,-,N/A,,Clear,0,2013-10-02 19:15:00
1:35 PM,46.4,30.2,53,30.02,10.0,NNW,4.6,-,N/A,,Clear,330,2013-10-02 19:35:00
1:55 PM,46.4,28.4,50,30.01,10.0,SSW,3.5,-,N/A,,Clear,210,2013-10-02 19:55:00
2:15 PM,46.4,30.2,53,30.00,10.0,Calm,Calm,-,N/A,,Clear,0,2013-10-02 20:15:00
2:35 PM,48.2,30.2,50,29.98,5.0,Calm,Calm,-,N/A,,Clear,0,2013-10-02 20:35:00
2:55 PM,48.2,30.2,50,29.97,10.0,NNW,3.5,-,N/A,,Clear,330,2013-10-02 20:55:00
3:15 PM,48.2,30.2,50,29.95,4.0,Calm,Calm,-,N/A,,Clear,0,2013-10-02 21:15:00
3:35 PM,51.8,30.2,44,29.94,10.0,West,3.5,-,N/A,,Clear,260,2013-10-02 21:35:00
3:55 PM,50.0,30.2,47,29.93,10.0,Calm,Calm,-,N/A,,Clear,0,2013-10-02 21:55:00
4:15 PM,51.8,32.0,47,29.92,10.0,Calm,Calm,-,N/A,,Clear,0,2013-10-02 22:15:00
4:35 PM,51.8,30.2,44,29.91,10.0,NW,4.6,-,N/A,,Clear,320,2013-10-02 22:35:00
4:55 PM,51.8,30.2,44,29.90,10.0,Calm,Calm,-,N/A,,Clear,0,2013-10-02 22:55:00
5:15 PM,51.8,30.2,44,29.89,10.0,Calm,Calm,-,N/A,,Clear,0,2013-10-02 23:15:00
5:35 PM,51.8,30.2,44,29.88,10.0,Calm,Calm,-,N/A,,Clear,0,2013-10-02 23:35:00
5:55 PM,51.8,30.2,44,29.87,10.0,ENE,3.5,-,N/A,,Partly Cloudy,60,2013-10-02 23:55:00
6:15 PM,51.8,28.4,41,29.87,10.0,Calm,Calm,-,N/A,,Partly Cloudy,0,2013-10-03 00:15:00
6:35 PM,51.8,28.4,41,29.87,10.0,Calm,Calm,-,N/A,,Mostly Cloudy,0,2013-10-03 00:35:00
6:55 PM,48.2,30.2,50,29.87,10.0,Calm,Calm,-,N/A,,Partly Cloudy,0,2013-10-03 00:55:00
7:15 PM,46.4,32.0,57,29.86,10.0,Calm,Calm,-,N/A,,Scattered Clouds,0,2013-10-03 01:15:00
7:35 PM,44.6,33.8,66,29.86,10.0,Calm,Calm,-,N/A,,Scattered Clouds,0,2013-10-03 01:35:00
7:55 PM,44.6,35.6,71,29.85,10.0,Calm,Calm,-,N/A,,Partly Cloudy,0,2013-10-03 01:55:00
8:15 PM,44.6,35.6,71,29.86,10.0,Calm,Calm,-,N/A,,Mostly Cloudy,0,2013-10-03 02:15:00
8:55 PM,42.8,33.8,70,29.85,10.0,Calm,Calm,-,N/A,,Scattered Clouds,0,2013-10-03 02:55:00
9:15 PM,42.8,35.6,76,29.86,10.0,Calm,Calm,-,N/A,,Scattered Clouds,0,2013-10-03 03:15:00
9:35 PM,42.8,33.8,70,29.85,10.0,SE,4.6,-,N/A,,Mostly Cloudy,130,2013-10-03 03:35:00
9:55 PM,44.6,35.6,71,29.85,10.0,SE,4.6,-,N/A,,Overcast,130,2013-10-03 03:55:00
10:15 PM,42.8,35.6,76,29.85,10.0,NNE,5.8,-,N/A,,Overcast,20,2013-10-03 04:15:00
10:35 PM,46.4,33.8,62,29.85,7.0,ESE,13.8,-,N/A,,Overcast,120,2013-10-03 04:35:00
10:55 PM,46.4,33.8,62,29.85,10.0,East,12.7,-,N/A,,Overcast,90,2013-10-03 04:55:00
11:15 PM,46.4,33.8,62,29.85,10.0,East,13.8,-,N/A,,Overcast,90,2013-10-03 05:15:00
11:35 PM,46.4,33.8,62,29.85,8.0,SE,13.8,-,N/A,,Overcast,130,2013-10-03 05:35:00
11:55 PM,44.6,35.6,71,29.86,10.0,ESE,10.4,-,N/A,,Overcast,120,2013-10-03 05:55:00